Time;durP1;ratioP1;P1;durP2;ratioP2;P2;SDS_P1;SDS_P2;PMS_P1;PMS_P2;Temp;Humidity;BMP_temperature;BMP_pressure;BME280_temperature;BME280_humidity;BME280_pressure;Samples;Min_cycle;Max_cycle;Signal;HPM_P1;HPM_P2
2022/02/05 00:01:33;;;;;;;11.47;7.80;;;;;;;;;;5124593;28;20214;-73
2022/02/05 00:04:07;;;;;;;13.67;7.60;;;;;;;;;;5120840;28;20215;-73
2022/02/05 00:06:38;;;;;;;11.90;7.13;;;;;;;;;;5121069;28;20221;-72
2022/02/05 00:09:14;;;;;;;11.60;7.93;;;;;;;;;;5120594;28;20208;-73
2022/02/05 00:20:29;;;;;;;10.83;7.93;;;;;;;;;;5118802;28;20640;-73
2022/02/05 00:42:37;;;;;;;12.53;9.10;;;;;;;;;;5119687;27;20208;-73
2022/02/05 00:45:08;;;;;;;15.80;9.73;;;;;;;;;;5119884;28;20205;-72
2022/02/05 00:47:38;;;;;;;18.17;11.57;;;;;;;;;;5120008;28;20315;-73
2022/02/05 00:50:10;;;;;;;16.20;10.93;;;;;;;;;;5119835;28;20232;-73
2022/02/05 00:52:38;;;;;;;19.67;10.87;;;;;;;;;;5120094;28;20209;-73
2022/02/05 00:55:10;;;;;;;16.83;9.60;;;;;;;;;;5119091;28;20201;-73
2022/02/05 00:57:46;;;;;;;15.60;10.50;;;;;;;;;;5119938;27;20225;-73
2022/02/05 01:00:15;;;;;;;15.93;10.67;;;;;;;;;;5119743;28;20197;-73
2022/02/05 01:02:43;;;;;;;15.60;10.87;;;;;;;;;;5119637;28;20227;-73
2022/02/05 01:05:11;;;;;;;14.03;9.63;;;;;;;;;;5119524;28;20201;-73
2022/02/05 01:07:41;;;;;;;15.10;10.57;;;;;;;;;;5119907;28;20247;-73
2022/02/05 01:10:09;;;;;;;13.67;10.83;;;;;;;;;;5119515;28;20224;-73
2022/02/05 01:12:43;;;;;;;15.97;10.50;;;;;;;;;;5118437;28;20205;-73
2022/02/05 01:15:11;;;;;;;14.00;9.93;;;;;;;;;;5119275;28;20212;-73
2022/02/05 01:17:44;;;;;;;13.47;9.83;;;;;;;;;;5119249;28;20704;-73
2022/02/05 01:23:00;;;;;;;14.93;10.83;;;;;;;;;;5119649;28;20209;-73
2022/02/05 01:25:34;;;;;;;15.73;10.53;;;;;;;;;;5118447;28;20196;-73
2022/02/05 01:28:09;;;;;;;14.27;11.07;;;;;;;;;;5119020;28;20211;-73
2022/02/05 01:30:42;;;;;;;15.80;11.00;;;;;;;;;;5119132;28;20220;-73
2022/02/05 01:33:25;;;;;;;16.90;10.73;;;;;;;;;;5119446;28;20215;-73
2022/02/05 01:36:10;;;;;;;17.37;11.13;;;;;;;;;;5118641;28;20618;-73
2022/02/05 01:50:27;;;;;;;14.67;10.47;;;;;;;;;;5055751;28;20230;-73
2022/02/05 01:53:13;;;;;;;14.37;10.67;;;;;;;;;;5091279;28;20205;-73
2022/02/05 01:56:11;;;;;;;14.80;10.30;;;;;;;;;;5118112;28;20200;-73
2022/02/05 01:58:53;;;;;;;17.13;11.07;;;;;;;;;;5109123;28;20660;-73
2022/02/05 02:07:11;;;;;;;16.77;10.07;;;;;;;;;;5099434;28;20243;-73
2022/02/05 02:10:14;;;;;;;12.97;9.37;;;;;;;;;;5118143;28;20218;-73
2022/02/05 02:12:52;;;;;;;15.53;9.63;;;;;;;;;;5118665;28;20236;-73
2022/02/05 02:15:26;;;;;;;17.70;10.13;;;;;;;;;;5118251;28;20200;-73
2022/02/05 02:20:52;;;;;;;16.57;10.20;;;;;;;;;;5098668;28;20192;-72
2022/02/05 02:23:33;;;;;;;16.00;9.77;;;;;;;;;;5118100;28;20656;-72
2022/02/05 02:26:09;;;;;;;16.07;11.13;;;;;;;;;;5117357;28;20683;-73
2022/02/05 02:28:48;;;;;;;17.70;9.83;;;;;;;;;;5118302;28;20659;-73
2022/02/05 02:31:20;;;;;;;13.80;9.90;;;;;;;;;;5118090;28;20221;-72
2022/02/05 02:33:52;;;;;;;16.33;9.60;;;;;;;;;;5118310;28;20209;-73
2022/02/05 02:36:30;;;;;;;13.60;9.47;;;;;;;;;;5117449;28;20254;-72
2022/02/05 02:39:05;;;;;;;14.20;9.53;;;;;;;;;;5117883;28;20207;-72
2022/02/05 02:41:41;;;;;;;15.13;9.73;;;;;;;;;;5117780;28;20200;-72
2022/02/05 02:44:09;;;;;;;14.20;9.87;;;;;;;;;;5118428;28;20204;-73
2022/02/05 02:46:37;;;;;;;17.23;10.63;;;;;;;;;;5117789;28;20285;-73
2022/02/05 02:49:06;;;;;;;17.77;12.10;;;;;;;;;;5117679;28;20237;-72
2022/02/05 02:57:20;;;;;;;23.10;13.83;;;;;;;;;;5117733;28;20224;-72
2022/02/05 02:59:52;;;;;;;16.87;11.63;;;;;;;;;;5117905;28;20671;-73
2022/02/05 03:02:22;;;;;;;24.27;14.37;;;;;;;;;;5117214;28;20192;-72
2022/02/05 03:04:52;;;;;;;14.63;10.47;;;;;;;;;;5117920;28;20209;-72
2022/02/05 03:07:20;;;;;;;14.63;9.37;;;;;;;;;;5117642;28;20223;-72
2022/02/05 03:09:49;;;;;;;12.20;9.97;;;;;;;;;;5118385;28;20211;-72
2022/02/05 03:12:18;;;;;;;12.93;8.97;;;;;;;;;;5117876;28;20220;-72
2022/02/05 03:14:46;;;;;;;13.70;8.53;;;;;;;;;;5117754;28;20215;-72
2022/02/05 03:17:19;;;;;;;14.37;9.23;;;;;;;;;;5117514;28;20220;-72
2022/02/05 03:19:49;;;;;;;17.53;8.87;;;;;;;;;;5117540;28;20660;-70
2022/02/05 03:22:18;;;;;;;12.47;8.47;;;;;;;;;;5117461;28;20280;-71
2022/02/05 03:24:46;;;;;;;14.80;9.77;;;;;;;;;;5117594;28;20211;-73
2022/02/05 03:27:17;;;;;;;14.80;9.30;;;;;;;;;;5117221;28;20723;-72
2022/02/05 03:29:47;;;;;;;17.23;9.83;;;;;;;;;;5117834;28;20209;-73
2022/02/05 03:32:16;;;;;;;13.77;9.77;;;;;;;;;;5117233;28;20224;-72
2022/02/05 03:34:44;;;;;;;14.60;9.53;;;;;;;;;;5117521;28;20660;-72
2022/02/05 03:37:12;;;;;;;14.63;10.10;;;;;;;;;;5120432;28;20224;-72
2022/02/05 03:39:40;;;;;;;12.77;9.30;;;;;;;;;;5120810;28;20690;-72
2022/02/05 03:42:08;;;;;;;11.47;8.87;;;;;;;;;;5121651;28;20660;-72
2022/02/05 03:44:38;;;;;;;10.83;8.77;;;;;;;;;;5121347;28;20201;-72
2022/02/05 03:47:06;;;;;;;11.80;8.07;;;;;;;;;;5121369;28;20706;-72
2022/02/05 03:49:34;;;;;;;9.83;7.63;;;;;;;;;;5120614;28;20229;-72
2022/02/05 03:52:02;;;;;;;7.73;6.33;;;;;;;;;;5121282;28;20264;-72
2022/02/05 03:54:31;;;;;;;6.33;5.33;;;;;;;;;;5120711;28;20207;-72
2022/02/05 03:56:59;;;;;;;7.87;5.40;;;;;;;;;;5121184;28;20227;-72
2022/02/05 03:59:27;;;;;;;6.37;3.43;;;;;;;;;;5121121;28;20203;-72
2022/02/05 04:01:57;;;;;;;2.47;2.17;;;;;;;;;;5120997;28;20193;-72
2022/02/05 04:04:27;;;;;;;2.57;1.90;;;;;;;;;;5120592;28;20216;-72
2022/02/05 04:06:55;;;;;;;5.13;1.90;;;;;;;;;;5120302;28;20221;-72
2022/02/05 04:09:28;;;;;;;1.97;1.70;;;;;;;;;;5120763;28;20201;-73
2022/02/05 04:15:56;;;;;;;2.93;1.73;;;;;;;;;;5108965;28;20479;-72
2022/02/05 04:17:34;;;;;;;2.00;1.70;;;;;;;;;;5120165;28;20835;-72
2022/02/05 04:20:03;;;;;;;2.37;1.50;;;;;;;;;;5120972;28;20211;-72
2022/02/05 04:22:31;;;;;;;5.93;1.80;;;;;;;;;;5120419;28;20193;-72
2022/02/05 04:24:59;;;;;;;4.77;1.90;;;;;;;;;;5120452;28;20204;-72
2022/02/05 04:27:26;;;;;;;1.43;1.33;;;;;;;;;;5120064;28;21545;-72
2022/02/05 04:29:55;;;;;;;4.17;1.50;;;;;;;;;;5120565;28;20209;-72
2022/02/05 04:32:23;;;;;;;2.60;1.73;;;;;;;;;;5119947;28;20474;-72
2022/02/05 04:34:52;;;;;;;2.10;1.70;;;;;;;;;;5120482;28;20450;-72
2022/02/05 04:37:23;;;;;;;3.93;1.30;;;;;;;;;;5119890;28;21013;-72
2022/02/05 04:40:03;;;;;;;3.03;1.30;;;;;;;;;;5120291;28;20449;-72
2022/02/05 04:42:42;;;;;;;2.00;1.20;;;;;;;;;;5119997;28;20802;-72
2022/02/05 04:45:33;;;;;;;3.17;1.30;;;;;;;;;;5120542;28;20799;-72
2022/02/05 04:48:40;;;;;;;1.20;1.10;;;;;;;;;;5107168;28;20445;-72
2022/02/05 04:51:37;;;;;;;1.93;1.23;;;;;;;;;;5119727;28;20228;-72
2022/02/05 04:54:32;;;;;;;2.63;1.30;;;;;;;;;;5119717;28;20208;-72
2022/02/05 04:57:09;;;;;;;3.20;1.40;;;;;;;;;;5119370;28;20221;-72
2022/02/05 05:00:00;;;;;;;3.50;1.30;;;;;;;;;;5120212;28;20215;-72
2022/02/05 05:02:50;;;;;;;1.50;1.37;;;;;;;;;;5119473;28;20280;-72
2022/02/05 05:05:36;;;;;;;1.97;1.17;;;;;;;;;;5119655;28;20216;-72
2022/02/05 05:08:27;;;;;;;3.43;1.10;;;;;;;;;;5119612;28;20205;-72
2022/02/05 05:11:35;;;;;;;7.33;1.43;;;;;;;;;;5119053;28;20566;-72
2022/02/05 05:19:41;;;;;;;0.90;0.90;;;;;;;;;;5118740;28;20204;-72
2022/02/05 05:22:09;;;;;;;1.33;1.10;;;;;;;;;;5118946;28;20256;-72
2022/02/05 05:24:38;;;;;;;3.93;1.30;;;;;;;;;;5119413;28;20205;-72
2022/02/05 05:27:06;;;;;;;1.07;0.97;;;;;;;;;;5118888;28;20564;-72
2022/02/05 05:29:34;;;;;;;2.10;1.17;;;;;;;;;;5119347;28;20663;-72
2022/02/05 05:32:02;;;;;;;1.43;1.00;;;;;;;;;;5119010;28;20235;-72
2022/02/05 05:34:30;;;;;;;3.90;1.10;;;;;;;;;;5119597;28;20212;-72
2022/02/05 05:37:00;;;;;;;2.63;0.80;;;;;;;;;;5118395;28;20260;-72
2022/02/05 05:39:28;;;;;;;1.93;0.80;;;;;;;;;;5118995;28;20205;-72
2022/02/05 05:41:58;;;;;;;3.30;0.83;;;;;;;;;;5118675;28;20207;-72
2022/02/05 05:44:50;;;;;;;1.53;1.00;;;;;;;;;;5119211;28;20207;-72
2022/02/05 05:47:34;;;;;;;1.20;0.90;;;;;;;;;;5119405;28;20232;-72
2022/02/05 05:50:09;;;;;;;1.40;0.80;;;;;;;;;;5119118;28;20240;-72
2022/02/05 05:52:37;;;;;;;2.00;1.07;;;;;;;;;;5118802;28;20485;-72
2022/02/05 05:55:05;;;;;;;1.30;1.00;;;;;;;;;;5118423;28;20529;-72
2022/02/05 05:57:35;;;;;;;2.10;1.33;;;;;;;;;;5118475;28;20473;-72
2022/02/05 06:00:04;;;;;;;5.40;1.70;;;;;;;;;;5118106;28;20452;-72
2022/02/05 06:02:32;;;;;;;3.07;1.20;;;;;;;;;;5118506;27;20818;-72
2022/02/05 06:05:00;;;;;;;2.17;0.90;;;;;;;;;;5118398;28;20447;-72
2022/02/05 06:07:28;;;;;;;1.50;1.20;;;;;;;;;;5117888;28;20830;-72
2022/02/05 06:09:56;;;;;;;2.80;1.13;;;;;;;;;;5104764;28;20446;-72
2022/02/05 06:12:24;;;;;;;1.40;0.93;;;;;;;;;;5118139;28;20475;-72
2022/02/05 06:14:54;;;;;;;1.23;1.03;;;;;;;;;;5118466;28;20443;-72
2022/02/05 06:17:25;;;;;;;2.60;1.33;;;;;;;;;;5117808;28;20509;-72
2022/02/05 06:19:54;;;;;;;2.13;0.97;;;;;;;;;;5118470;28;20454;-72
2022/02/05 06:22:22;;;;;;;3.03;1.03;;;;;;;;;;5118272;28;20451;-72
2022/02/05 06:24:50;;;;;;;3.60;1.27;;;;;;;;;;5118613;28;20442;-72
2022/02/05 06:27:18;;;;;;;3.33;1.30;;;;;;;;;;5118068;28;20243;-72
2022/02/05 06:29:46;;;;;;;4.83;1.30;;;;;;;;;;5118574;28;20442;-72
2022/02/05 06:32:17;;;;;;;1.87;1.10;;;;;;;;;;5117838;28;20458;-72
2022/02/05 06:34:45;;;;;;;3.20;1.03;;;;;;;;;;5118005;28;20455;-72
2022/02/05 06:37:13;;;;;;;3.10;1.23;;;;;;;;;;5118565;28;20965;-72
2022/02/05 06:39:42;;;;;;;3.50;1.27;;;;;;;;;;5117239;28;20459;-72
2022/02/05 06:42:11;;;;;;;2.73;1.10;;;;;;;;;;5118165;28;20450;-72
2022/02/05 06:44:39;;;;;;;3.90;1.30;;;;;;;;;;5118208;28;20446;-72
2022/02/05 06:47:07;;;;;;;2.33;1.20;;;;;;;;;;5117986;28;21001;-72
2022/02/05 06:49:36;;;;;;;2.23;1.30;;;;;;;;;;5117695;28;20239;-72
2022/02/05 06:52:06;;;;;;;3.47;1.17;;;;;;;;;;5118055;28;20208;-72
2022/02/05 06:54:34;;;;;;;2.83;1.10;;;;;;;;;;5117567;28;20224;-72
2022/02/05 06:57:02;;;;;;;1.93;1.73;;;;;;;;;;5118013;28;20957;-72
2022/02/05 06:59:30;;;;;;;1.50;0.80;;;;;;;;;;5117803;28;20447;-72
2022/02/05 07:01:58;;;;;;;1.57;1.37;;;;;;;;;;5118442;28;20442;-72
2022/02/05 07:04:27;;;;;;;1.20;1.10;;;;;;;;;;5117779;28;20449;-73
2022/02/05 07:06:58;;;;;;;6.23;2.03;;;;;;;;;;5118610;28;20465;-72
2022/02/05 07:09:27;;;;;;;3.23;1.20;;;;;;;;;;5117864;28;20442;-72
2022/02/05 07:11:58;;;;;;;5.23;1.27;;;;;;;;;;5121401;28;20964;-72
2022/02/05 07:14:31;;;;;;;1.43;0.80;;;;;;;;;;5122038;28;20513;-72
2022/02/05 07:17:05;;;;;;;3.40;1.13;;;;;;;;;;5122347;28;20458;-72
2022/02/05 07:19:45;;;;;;;1.70;1.50;;;;;;;;;;5122017;28;20468;-72
2022/02/05 07:22:14;;;;;;;3.73;1.20;;;;;;;;;;5122471;28;20453;-72
2022/02/05 07:25:00;;;;;;;1.03;1.00;;;;;;;;;;5121798;28;20446;-71
2022/02/05 07:30:21;;;;;;;1.17;1.10;;;;;;;;;;5086316;28;20455;-72
2022/02/05 07:32:54;;;;;;;2.33;0.90;;;;;;;;;;5121635;28;20482;-72
2022/02/05 07:35:22;;;;;;;1.77;1.37;;;;;;;;;;5121587;28;20550;-72
2022/02/05 07:37:55;;;;;;;2.30;1.33;;;;;;;;;;5121365;27;20471;-72
2022/02/05 07:40:23;;;;;;;4.77;1.40;;;;;;;;;;5115765;28;20442;-72
2022/02/05 07:42:51;;;;;;;1.77;1.20;;;;;;;;;;5122022;28;20201;-72
2022/02/05 07:45:20;;;;;;;2.53;1.17;;;;;;;;;;5121672;28;20215;-72
2022/02/05 07:47:48;;;;;;;1.47;1.00;;;;;;;;;;5121289;28;20225;-72
2022/02/05 07:50:16;;;;;;;2.27;1.10;;;;;;;;;;5121337;28;20229;-72
2022/02/05 07:52:44;;;;;;;4.10;1.47;;;;;;;;;;5121550;28;20209;-72
2022/02/05 07:55:13;;;;;;;2.10;0.93;;;;;;;;;;5121168;27;20201;-72
2022/02/05 07:57:41;;;;;;;3.63;0.97;;;;;;;;;;5121676;28;20269;-72
2022/02/05 08:00:10;;;;;;;3.03;1.00;;;;;;;;;;5121362;28;20211;-72
2022/02/05 08:02:38;;;;;;;2.17;1.60;;;;;;;;;;5120905;28;20204;-72
2022/02/05 08:05:06;;;;;;;4.87;1.20;;;;;;;;;;5120628;28;20204;-72
2022/02/05 08:07:34;;;;;;;3.03;1.00;;;;;;;;;;5121137;28;20220;-72
2022/02/05 08:10:05;;;;;;;3.90;0.90;;;;;;;;;;5120407;28;20201;-72
2022/02/05 08:12:35;;;;;;;1.93;1.30;;;;;;;;;;5121275;28;20287;-72
2022/02/05 08:15:04;;;;;;;6.67;1.10;;;;;;;;;;5120907;28;20221;-72
2022/02/05 08:17:34;;;;;;;4.23;1.50;;;;;;;;;;5120880;28;20220;-72
2022/02/05 08:20:02;;;;;;;3.87;1.20;;;;;;;;;;5120506;28;20200;-71
2022/02/05 08:22:30;;;;;;;3.33;1.27;;;;;;;;;;5120430;28;20683;-72
2022/02/05 08:24:58;;;;;;;1.53;1.00;;;;;;;;;;5120234;28;20570;-72
2022/02/05 08:27:26;;;;;;;3.20;1.60;;;;;;;;;;5120286;28;20231;-73
2022/02/05 08:29:58;;;;;;;2.20;0.90;;;;;;;;;;5120655;28;20211;-72
2022/02/05 08:32:28;;;;;;;5.00;1.00;;;;;;;;;;5120013;28;20211;-72
2022/02/05 08:34:57;;;;;;;0.97;0.63;;;;;;;;;;5120545;28;20759;-71
2022/02/05 08:37:25;;;;;;;2.67;0.97;;;;;;;;;;5119883;28;20625;-72
2022/02/05 08:39:53;;;;;;;2.73;1.23;;;;;;;;;;5119686;28;20204;-72
2022/02/05 08:42:21;;;;;;;5.67;1.10;;;;;;;;;;5120063;28;20248;-72
2022/02/05 08:44:49;;;;;;;1.30;0.90;;;;;;;;;;5119960;28;20453;-72
2022/02/05 08:47:18;;;;;;;3.37;1.17;;;;;;;;;;5119812;28;20462;-72
2022/02/05 08:49:46;;;;;;;2.63;1.10;;;;;;;;;;5119809;28;20475;-72
2022/02/05 08:52:15;;;;;;;3.33;1.00;;;;;;;;;;5119924;28;20205;-73
2022/02/05 08:54:43;;;;;;;5.80;1.03;;;;;;;;;;5120014;28;20595;-72
2022/02/05 08:57:11;;;;;;;6.13;1.43;;;;;;;;;;5119688;28;20225;-72
2022/02/05 08:59:49;;;;;;;1.00;0.90;;;;;;;;;;5120002;28;20643;-72
2022/02/05 09:02:24;;;;;;;1.90;0.83;;;;;;;;;;5119766;27;20264;-72
2022/02/05 09:04:58;;;;;;;6.77;1.30;;;;;;;;;;5120113;28;20200;-72
2022/02/05 09:07:26;;;;;;;2.53;1.23;;;;;;;;;;5119374;28;20224;-72
2022/02/05 09:10:11;;;;;;;4.27;1.23;;;;;;;;;;5119641;28;20212;-73
2022/02/05 09:13:07;;;;;;;2.17;1.30;;;;;;;;;;5119498;28;20666;-73
2022/02/05 09:15:34;;;;;;;1.30;1.20;;;;;;;;;;5118983;28;20719;-73
2022/02/05 09:18:04;;;;;;;3.73;1.00;;;;;;;;;;5119345;28;20208;-73
2022/02/05 09:20:32;;;;;;;1.93;1.17;;;;;;;;;;5116346;28;20209;-73
2022/02/05 09:23:01;;;;;;;3.47;1.00;;;;;;;;;;5119335;28;20283;-73
2022/02/05 09:25:29;;;;;;;1.10;0.90;;;;;;;;;;5119060;28;20201;-73
2022/02/05 09:27:57;;;;;;;3.10;1.00;;;;;;;;;;5119436;28;20278;-73
2022/02/05 09:33:08;;;;;;;2.00;0.90;;;;;;;;;;5118202;27;20213;-73
2022/02/05 09:35:36;;;;;;;4.40;1.10;;;;;;;;;;5118724;28;20562;-73
2022/02/05 09:38:04;;;;;;;2.33;1.10;;;;;;;;;;5119270;28;20211;-72
2022/02/05 09:40:33;;;;;;;4.87;2.30;;;;;;;;;;5118794;28;20215;-72
2022/02/05 09:43:01;;;;;;;2.10;1.13;;;;;;;;;;5119124;28;20569;-73
2022/02/05 09:45:29;;;;;;;3.30;1.60;;;;;;;;;;5118741;28;20205;-72
2022/02/05 09:47:57;;;;;;;4.90;0.97;;;;;;;;;;5118829;28;20220;-72
2022/02/05 09:50:27;;;;;;;1.20;1.10;;;;;;;;;;5118488;28;20236;-72
2022/02/05 09:53:01;;;;;;;3.80;1.27;;;;;;;;;;5119258;28;20214;-72
2022/02/05 09:55:29;;;;;;;2.20;1.30;;;;;;;;;;5118317;28;20223;-73
2022/02/05 09:57:57;;;;;;;6.47;1.23;;;;;;;;;;5119198;28;20240;-72
2022/02/05 10:00:26;;;;;;;2.20;1.13;;;;;;;;;;5118494;28;20215;-73
2022/02/05 10:02:57;;;;;;;2.07;1.00;;;;;;;;;;5118669;27;20573;-72
2022/02/05 10:05:31;;;;;;;2.97;1.50;;;;;;;;;;5118416;28;20204;-73
2022/02/05 10:08:02;;;;;;;3.23;0.90;;;;;;;;;;5118470;28;20575;-73
2022/02/05 10:10:38;;;;;;;3.30;1.07;;;;;;;;;;5118091;28;20205;-72
2022/02/05 10:13:10;;;;;;;3.87;1.13;;;;;;;;;;5106630;28;20578;-72
2022/02/05 10:15:39;;;;;;;1.37;1.27;;;;;;;;;;5118123;28;20243;-72
2022/02/05 10:18:08;;;;;;;2.57;2.17;;;;;;;;;;5104385;28;20208;-72
2022/02/05 10:20:42;;;;;;;3.03;1.30;;;;;;;;;;5112299;28;20208;-73
2022/02/05 10:23:11;;;;;;;6.87;1.73;;;;;;;;;;5105469;28;20723;-72
2022/02/05 10:25:39;;;;;;;2.23;0.90;;;;;;;;;;5117902;28;20197;-72
2022/02/05 10:28:10;;;;;;;5.33;1.10;;;;;;;;;;5105316;28;20201;-73
2022/02/05 10:30:43;;;;;;;1.10;1.00;;;;;;;;;;5118091;28;20209;-73
2022/02/05 10:33:16;;;;;;;7.17;2.00;;;;;;;;;;5105639;28;20215;-72
2022/02/05 10:35:50;;;;;;;2.73;1.60;;;;;;;;;;5117995;28;20227;-73
2022/02/05 10:38:37;;;;;;;4.40;1.40;;;;;;;;;;5118125;28;20192;-73
2022/02/05 10:43:52;;;;;;;1.77;1.40;;;;;;;;;;5117629;28;20209;-73
2022/02/05 10:46:20;;;;;;;4.60;1.30;;;;;;;;;;5117571;28;20217;-73
2022/02/05 10:48:48;;;;;;;4.70;1.30;;;;;;;;;;5117936;28;20238;-72
2022/02/05 10:51:18;;;;;;;4.57;1.13;;;;;;;;;;5104832;28;20255;-72
2022/02/05 10:53:50;;;;;;;4.67;1.30;;;;;;;;;;5117938;28;20212;-72
2022/02/05 10:56:27;;;;;;;5.60;1.57;;;;;;;;;;5117287;28;20220;-72
2022/02/05 10:59:17;;;;;;;9.10;1.37;;;;;;;;;;5118300;28;20208;-72
2022/02/05 11:07:19;;;;;;;2.13;1.23;;;;;;;;;;5118125;28;20261;-73
2022/02/05 11:09:47;;;;;;;7.10;1.37;;;;;;;;;;5117370;28;20205;-72
2022/02/05 11:12:22;;;;;;;2.40;1.13;;;;;;;;;;5117782;28;20247;-72
2022/02/05 11:15:14;;;;;;;7.80;3.03;;;;;;;;;;5116374;28;20304;-72
2022/02/05 11:20:29;;;;;;;7.33;1.43;;;;;;;;;;5115305;28;20205;-72
2022/02/05 11:23:00;;;;;;;2.87;1.30;;;;;;;;;;5117492;28;20679;-72
2022/02/05 11:25:29;;;;;;;5.87;1.17;;;;;;;;;;5116907;28;20553;-72
2022/02/05 11:27:57;;;;;;;2.50;1.23;;;;;;;;;;5117483;28;20236;-72
2022/02/05 11:30:32;;;;;;;5.80;1.33;;;;;;;;;;5117465;28;20309;-73
2022/02/05 11:33:04;;;;;;;3.33;1.20;;;;;;;;;;5117340;28;20208;-73
2022/02/05 11:35:43;;;;;;;2.30;1.20;;;;;;;;;;5117715;28;20221;-73
2022/02/05 11:38:12;;;;;;;4.60;1.20;;;;;;;;;;5117249;28;20574;-73
2022/02/05 11:40:47;;;;;;;4.00;1.60;;;;;;;;;;5116863;28;20577;-73
2022/02/05 11:43:16;;;;;;;1.50;1.40;;;;;;;;;;5117637;28;20205;-72
2022/02/05 11:45:44;;;;;;;5.10;1.47;;;;;;;;;;5117423;28;20203;-73
2022/02/05 11:48:30;;;;;;;4.30;1.60;;;;;;;;;;5117497;28;20211;-73
2022/02/05 11:51:09;;;;;;;8.53;1.40;;;;;;;;;;5117228;28;20211;-73
2022/02/05 11:53:52;;;;;;;2.10;1.10;;;;;;;;;;5117374;28;20213;-73
2022/02/05 11:56:22;;;;;;;5.93;1.20;;;;;;;;;;5116791;28;20221;-73
2022/02/05 11:58:55;;;;;;;3.50;1.20;;;;;;;;;;5121373;28;20205;-73
2022/02/05 12:01:33;;;;;;;2.83;1.43;;;;;;;;;;5121264;28;20197;-73
2022/02/05 12:04:11;;;;;;;3.70;1.10;;;;;;;;;;5121039;28;20283;-73
2022/02/05 12:06:45;;;;;;;4.83;1.63;;;;;;;;;;5121364;28;20250;-73
2022/02/05 12:09:28;;;;;;;2.73;1.23;;;;;;;;;;5120755;28;20211;-73
2022/02/05 12:11:57;;;;;;;6.87;1.43;;;;;;;;;;5119094;28;20204;-73
2022/02/05 12:14:25;;;;;;;5.77;1.50;;;;;;;;;;5120877;28;20211;-72
2022/02/05 12:17:11;;;;;;;4.87;1.63;;;;;;;;;;5120282;28;20228;-73
2022/02/05 12:19:53;;;;;;;4.97;1.80;;;;;;;;;;5120649;28;20209;-73
2022/02/05 12:22:29;;;;;;;2.73;1.43;;;;;;;;;;5096408;28;20205;-73
2022/02/05 12:25:11;;;;;;;5.70;1.47;;;;;;;;;;5120400;28;20211;-73
2022/02/05 12:27:40;;;;;;;3.03;1.60;;;;;;;;;;5120726;28;20238;-73
2022/02/05 12:30:27;;;;;;;3.87;1.50;;;;;;;;;;5120357;28;20201;-73
2022/02/05 12:32:55;;;;;;;4.17;1.43;;;;;;;;;;5120657;28;20209;-73
2022/02/05 12:35:23;;;;;;;6.17;1.47;;;;;;;;;;5120385;28;20207;-73
2022/02/05 12:37:54;;;;;;;5.13;1.53;;;;;;;;;;5120353;28;20704;-73
2022/02/05 12:40:22;;;;;;;4.63;1.70;;;;;;;;;;5119887;28;20632;-73
2022/02/05 12:42:54;;;;;;;5.97;1.70;;;;;;;;;;5120416;28;20667;-73
2022/02/05 12:45:44;;;;;;;6.13;1.77;;;;;;;;;;5120300;28;20226;-73
2022/02/05 12:48:12;;;;;;;6.50;1.87;;;;;;;;;;5119878;28;20204;-73
2022/02/05 12:50:42;;;;;;;5.53;1.67;;;;;;;;;;5120006;28;20241;-73
2022/02/05 12:53:11;;;;;;;5.97;2.30;;;;;;;;;;5120128;28;20200;-72
2022/02/05 12:55:45;;;;;;;3.30;1.37;;;;;;;;;;5119699;28;20223;-73
2022/02/05 12:58:18;;;;;;;5.90;2.10;;;;;;;;;;5119966;28;20662;-72
2022/02/05 13:01:04;;;;;;;2.67;1.77;;;;;;;;;;5120150;28;20204;-72
2022/02/05 13:03:32;;;;;;;3.93;1.30;;;;;;;;;;5119380;28;20575;-72
2022/02/05 13:06:00;;;;;;;6.03;1.43;;;;;;;;;;5119770;28;20586;-72
2022/02/05 13:08:43;;;;;;;6.83;1.87;;;;;;;;;;5119213;28;20723;-72
2022/02/05 13:11:11;;;;;;;5.70;1.17;;;;;;;;;;5119801;28;20208;-72
2022/02/05 13:13:52;;;;;;;4.07;1.10;;;;;;;;;;5119287;28;20205;-72
2022/02/05 13:16:21;;;;;;;5.40;1.43;;;;;;;;;;5119405;28;20763;-73
2022/02/05 13:19:05;;;;;;;6.97;1.93;;;;;;;;;;5118766;28;20211;-73
2022/02/05 13:25:01;;;;;;;4.67;1.30;;;;;;;;;;5119163;28;20563;-73
2022/02/05 13:27:44;;;;;;;4.10;1.37;;;;;;;;;;5119465;28;20718;-73
2022/02/05 13:35:59;;;;;;;2.73;1.23;;;;;;;;;;5119492;28;20261;-72
2022/02/05 13:38:30;;;;;;;4.93;1.77;;;;;;;;;;5118850;28;20201;-73
2022/02/05 13:41:01;;;;;;;1.10;0.97;;;;;;;;;;5119050;28;20215;-71
2022/02/05 13:43:41;;;;;;;3.23;1.90;;;;;;;;;;5118756;28;20570;-73
2022/02/05 13:46:14;;;;;;;4.80;1.50;;;;;;;;;;5119058;28;20220;-73
2022/02/05 13:48:42;;;;;;;6.27;1.57;;;;;;;;;;5118674;28;20865;-73
2022/02/05 13:51:10;;;;;;;4.03;1.70;;;;;;;;;;5119228;28;20213;-73
2022/02/05 13:53:48;;;;;;;2.70;0.83;;;;;;;;;;5118452;28;20209;-73
2022/02/05 13:56:17;;;;;;;7.30;2.07;;;;;;;;;;5118566;28;20263;-73
2022/02/05 13:58:45;;;;;;;5.47;1.60;;;;;;;;;;5118974;28;20208;-72
2022/02/05 14:01:28;;;;;;;4.80;1.60;;;;;;;;;;5118817;28;20200;-73
2022/02/05 14:03:57;;;;;;;5.17;1.77;;;;;;;;;;5118325;28;20677;-73
2022/02/05 14:06:24;;;;;;;3.67;1.30;;;;;;;;;;5118577;28;20225;-73
2022/02/05 14:08:54;;;;;;;5.13;1.23;;;;;;;;;;5117943;28;20211;-73
2022/02/05 14:11:26;;;;;;;2.33;1.60;;;;;;;;;;5118534;28;20633;-73
2022/02/05 14:13:58;;;;;;;2.63;1.00;;;;;;;;;;5118498;28;20201;-72
2022/02/05 14:16:31;;;;;;;4.70;1.13;;;;;;;;;;5107653;28;20224;-72
2022/02/05 14:19:01;;;;;;;2.87;1.20;;;;;;;;;;5110525;28;20216;-72
2022/02/05 14:21:32;;;;;;;9.13;1.53;;;;;;;;;;5117209;28;20636;-73
2022/02/05 14:23:59;;;;;;;3.97;1.40;;;;;;;;;;5117911;28;20211;-72
2022/02/05 14:26:28;;;;;;;4.30;1.20;;;;;;;;;;5117856;28;20587;-73
2022/02/05 14:28:58;;;;;;;5.73;1.43;;;;;;;;;;5118553;28;20208;-72
2022/02/05 14:31:32;;;;;;;4.50;1.67;;;;;;;;;;5117918;28;20207;-71
2022/02/05 14:34:15;;;;;;;5.53;1.60;;;;;;;;;;5118216;28;20211;-71
2022/02/05 14:42:19;;;;;;;3.80;1.30;;;;;;;;;;5118122;28;20207;-73
2022/02/05 14:44:47;;;;;;;8.60;1.40;;;;;;;;;;5118001;28;20224;-72
2022/02/05 14:47:15;;;;;;;4.00;1.23;;;;;;;;;;5117881;28;20221;-71
2022/02/05 14:49:45;;;;;;;2.83;1.20;;;;;;;;;;5117770;28;20243;-72
2022/02/05 14:52:15;;;;;;;7.33;1.57;;;;;;;;;;5117800;28;20209;-72
2022/02/05 14:54:43;;;;;;;2.23;1.27;;;;;;;;;;5117809;28;20213;-72
2022/02/05 14:57:11;;;;;;;3.00;1.30;;;;;;;;;;5117458;28;20660;-73
2022/02/05 14:59:41;;;;;;;2.97;1.30;;;;;;;;;;5117692;28;20204;-72
2022/02/05 15:02:09;;;;;;;4.57;1.37;;;;;;;;;;5117417;28;20660;-72
2022/02/05 15:04:37;;;;;;;3.43;1.43;;;;;;;;;;5117664;28;20208;-71
2022/02/05 15:07:07;;;;;;;4.13;1.50;;;;;;;;;;5117281;28;20212;-71
2022/02/05 15:09:36;;;;;;;2.07;1.40;;;;;;;;;;5117711;28;20212;-73
2022/02/05 15:12:05;;;;;;;2.10;1.10;;;;;;;;;;5117586;28;20201;-73
2022/02/05 15:14:33;;;;;;;2.53;1.53;;;;;;;;;;5117374;28;20209;-71
2022/02/05 15:17:03;;;;;;;3.03;1.67;;;;;;;;;;5117084;28;20675;-72
2022/02/05 15:19:31;;;;;;;5.17;1.50;;;;;;;;;;5117234;28;20328;-72
2022/02/05 15:21:59;;;;;;;4.50;2.50;;;;;;;;;;5117207;28;20197;-72
2022/02/05 15:24:28;;;;;;;4.67;1.70;;;;;;;;;;5117220;28;20221;-72
2022/02/05 15:26:56;;;;;;;3.23;1.53;;;;;;;;;;5117009;28;20231;-72
2022/02/05 15:29:24;;;;;;;3.33;1.43;;;;;;;;;;5106294;28;20201;-72
2022/02/05 15:31:53;;;;;;;2.03;1.63;;;;;;;;;;5118696;28;20806;-72
2022/02/05 15:34:21;;;;;;;2.70;1.10;;;;;;;;;;5121291;28;20574;-72
2022/02/05 15:36:53;;;;;;;4.57;1.50;;;;;;;;;;5121253;28;20251;-72
2022/02/05 15:39:46;;;;;;;5.77;1.60;;;;;;;;;;5120656;27;20648;-72
2022/02/05 15:45:02;;;;;;;1.33;1.23;;;;;;;;;;5120917;28;20232;-72
2022/02/05 15:47:31;;;;;;;3.40;1.37;;;;;;;;;;5121286;28;20221;-72
2022/02/05 15:49:59;;;;;;;2.70;1.30;;;;;;;;;;5120728;28;20237;-72
2022/02/05 15:52:27;;;;;;;2.97;1.20;;;;;;;;;;5108141;28;20698;-72
2022/02/05 15:54:57;;;;;;;1.20;1.07;;;;;;;;;;5121135;28;20205;-72
2022/02/05 15:57:36;;;;;;;3.27;1.43;;;;;;;;;;5116942;28;20247;-73
2022/02/05 16:00:09;;;;;;;6.07;1.90;;;;;;;;;;5120769;27;20204;-72
2022/02/05 16:02:37;;;;;;;3.70;1.87;;;;;;;;;;5120824;28;20568;-72
2022/02/05 16:05:05;;;;;;;3.83;1.83;;;;;;;;;;5120494;28;20682;-72
2022/02/05 16:07:33;;;;;;;3.13;1.87;;;;;;;;;;5120649;28;20217;-72
2022/02/05 16:10:01;;;;;;;3.07;1.53;;;;;;;;;;5120490;28;20211;-72
2022/02/05 16:12:31;;;;;;;3.57;1.27;;;;;;;;;;5121150;28;20204;-72
2022/02/05 16:14:59;;;;;;;6.80;1.33;;;;;;;;;;5120517;28;20293;-72
2022/02/05 16:17:27;;;;;;;4.20;1.50;;;;;;;;;;5120113;28;20235;-72
2022/02/05 16:19:55;;;;;;;5.10;1.33;;;;;;;;;;5119207;28;20205;-72
2022/02/05 16:22:23;;;;;;;4.50;1.73;;;;;;;;;;5118630;28;20220;-72
2022/02/05 16:24:50;;;;;;;6.33;2.00;;;;;;;;;;5120337;27;20201;-71
2022/02/05 16:27:19;;;;;;;3.50;1.17;;;;;;;;;;5120479;28;20231;-72
2022/02/05 16:29:48;;;;;;;4.80;1.50;;;;;;;;;;5120435;27;20223;-72
2022/02/05 16:32:16;;;;;;;5.70;1.93;;;;;;;;;;5120373;28;20221;-72
2022/02/05 16:34:49;;;;;;;1.87;1.53;;;;;;;;;;5120076;28;20656;-72
2022/02/05 16:37:17;;;;;;;2.37;1.20;;;;;;;;;;5119937;28;20220;-72
2022/02/05 16:39:45;;;;;;;3.37;1.50;;;;;;;;;;5108132;28;20202;-72
2022/02/05 16:42:14;;;;;;;3.97;1.70;;;;;;;;;;5118084;28;20201;-72
2022/02/05 16:44:42;;;;;;;6.23;2.00;;;;;;;;;;5119957;28;20201;-72
2022/02/05 16:47:12;;;;;;;2.77;1.50;;;;;;;;;;5120105;28;20300;-72